Time;durP1;ratioP1;P1;durP2;ratioP2;P2;SDS_P1;SDS_P2;PMS_P1;PMS_P2;Temp;Humidity;BMP_temperature;BMP_pressure;BME280_temperature;BME280_humidity;BME280_pressure;Samples;Min_cycle;Max_cycle;Signal;HPM_P1;HPM_P2
2021/09/25 00:00:34;;;;;;;3.40;2.53;;;17.40;94.40;;;;;;5051445;28;20017;-63
2021/09/25 00:03:00;;;;;;;4.95;3.47;;;17.40;94.50;;;;;;5052653;28;20531;-63
2021/09/25 00:05:28;;;;;;;4.43;3.33;;;17.20;94.60;;;;;;5056807;28;20140;-63
2021/09/25 00:07:54;;;;;;;4.13;3.00;;;17.20;94.80;;;;;;5051784;28;20025;-63
2021/09/25 00:10:20;;;;;;;5.28;3.80;;;17.10;94.90;;;;;;5053861;28;20028;-63
2021/09/25 00:12:46;;;;;;;4.32;3.42;;;17.10;95.00;;;;;;5051512;28;20029;-63
2021/09/25 00:15:11;;;;;;;4.00;2.50;;;17.10;95.00;;;;;;5054058;28;20064;-63
2021/09/25 00:17:37;;;;;;;4.60;3.25;;;17.10;95.00;;;;;;5048381;28;20048;-63
2021/09/25 00:20:03;;;;;;;6.05;3.97;;;17.20;95.00;;;;;;5053879;28;20029;-63
2021/09/25 00:22:29;;;;;;;5.63;3.58;;;17.20;95.00;;;;;;5056411;28;20025;-63
2021/09/25 00:24:54;;;;;;;6.28;4.15;;;17.20;95.00;;;;;;5056512;28;20380;-63
2021/09/25 00:27:20;;;;;;;5.53;3.50;;;17.10;95.20;;;;;;5035693;28;20028;-63
2021/09/25 00:29:45;;;;;;;6.00;3.83;;;17.10;95.10;;;;;;5052926;28;20789;-63
2021/09/25 00:32:11;;;;;;;7.90;3.90;;;17.10;95.20;;;;;;5055903;28;20103;-63
2021/09/25 00:34:36;;;;;;;6.18;4.07;;;17.20;95.20;;;;;;5051515;28;20542;-63
2021/09/25 00:37:02;;;;;;;7.03;4.40;;;17.20;95.20;;;;;;5035776;28;20025;-63
2021/09/25 00:39:28;;;;;;;5.97;4.07;;;17.10;95.20;;;;;;5056392;28;20114;-63
2021/09/25 00:41:53;;;;;;;5.70;3.95;;;17.10;95.30;;;;;;5050774;28;20480;-63
2021/09/25 00:44:21;;;;;;;5.75;4.00;;;17.10;95.30;;;;;;5050592;28;20386;-63
2021/09/25 00:46:46;;;;;;;5.40;4.13;;;17.10;95.30;;;;;;5053304;28;21075;-63
2021/09/25 00:49:17;;;;;;;7.80;5.25;;;17.10;95.30;;;;;;5053590;28;20112;-63
2021/09/25 00:51:43;;;;;;;7.22;4.55;;;17.10;95.40;;;;;;5034376;28;20092;-63
2021/09/25 00:54:08;;;;;;;5.32;3.88;;;17.10;95.50;;;;;;5037610;28;20025;-63
2021/09/25 00:56:35;;;;;;;9.40;5.60;;;17.10;95.50;;;;;;5053185;28;20029;-63
2021/09/25 00:59:01;;;;;;;6.25;4.97;;;17.00;95.60;;;;;;5052945;28;20025;-63
2021/09/25 01:01:27;;;;;;;8.23;5.38;;;17.00;95.70;;;;;;5055719;28;20048;-63
2021/09/25 01:03:52;;;;;;;9.13;5.93;;;17.00;95.90;;;;;;5052990;28;20052;-63
2021/09/25 01:06:18;;;;;;;7.55;5.28;;;17.00;96.00;;;;;;5053196;28;20025;-63
2021/09/25 01:08:44;;;;;;;5.30;4.00;;;16.90;96.00;;;;;;5055598;28;20036;-63
2021/09/25 01:11:09;;;;;;;5.28;3.83;;;16.90;96.00;;;;;;5052821;28;20017;-63
2021/09/25 01:13:35;;;;;;;6.40;4.45;;;17.00;96.00;;;;;;5052698;28;20025;-63
2021/09/25 01:16:00;;;;;;;6.22;3.78;;;17.00;96.00;;;;;;5052747;28;20066;-63
2021/09/25 01:18:26;;;;;;;5.72;4.50;;;17.00;96.00;;;;;;5052717;28;20547;-63
2021/09/25 01:20:52;;;;;;;7.82;4.78;;;17.00;96.00;;;;;;5049998;28;20029;-63
2021/09/25 01:23:18;;;;;;;7.95;4.97;;;17.00;96.10;;;;;;5055447;28;20016;-63
2021/09/25 01:25:43;;;;;;;6.38;4.25;;;17.00;96.10;;;;;;5052535;28;20098;-63
2021/09/25 01:28:09;;;;;;;8.48;5.00;;;16.90;96.00;;;;;;5049731;28;20100;-63
2021/09/25 01:30:34;;;;;;;7.97;6.15;;;16.90;96.10;;;;;;5055246;28;20024;-63
2021/09/25 01:33:01;;;;;;;7.53;5.07;;;16.90;96.20;;;;;;5031842;28;20472;-63
2021/09/25 01:35:27;;;;;;;9.60;5.78;;;16.90;96.30;;;;;;5053016;28;20021;-63
2021/09/25 01:37:55;;;;;;;6.50;4.80;;;16.90;96.40;;;;;;5054890;28;20025;-63
2021/09/25 01:40:21;;;;;;;6.75;4.88;;;16.80;96.50;;;;;;5050649;28;20091;-63
2021/09/25 01:42:47;;;;;;;6.95;4.60;;;16.80;96.50;;;;;;5051860;28;20445;-63
2021/09/25 01:45:14;;;;;;;9.00;5.20;;;16.80;96.60;;;;;;5055093;28;20024;-63
2021/09/25 01:47:39;;;;;;;7.22;5.07;;;16.80;96.50;;;;;;5052207;28;20081;-63
2021/09/25 01:50:08;;;;;;;7.03;5.10;;;16.80;96.50;;;;;;5055292;28;20040;-63
2021/09/25 01:52:34;;;;;;;6.95;4.90;;;16.80;96.50;;;;;;5048362;28;20017;-63
2021/09/25 01:54:59;;;;;;;8.38;5.07;;;16.80;96.50;;;;;;5036711;28;20135;-63
2021/09/25 01:57:25;;;;;;;9.70;5.82;;;16.80;96.60;;;;;;5052055;28;20013;-63
2021/09/25 01:59:50;;;;;;;7.15;4.95;;;16.80;96.60;;;;;;5034608;28;20448;-63
2021/09/25 02:02:17;;;;;;;7.75;5.18;;;16.80;96.50;;;;;;5053925;28;20016;-63
2021/09/25 02:04:49;;;;;;;8.10;5.30;;;16.70;96.60;;;;;;5046562;28;20060;-63
2021/09/25 02:07:17;;;;;;;7.28;4.90;;;16.70;96.60;;;;;;5051823;28;20029;-63
2021/09/25 02:09:43;;;;;;;8.27;5.20;;;16.70;96.60;;;;;;5051634;28;20049;-63
2021/09/25 02:12:09;;;;;;;7.90;5.55;;;16.70;96.70;;;;;;5036470;28;20047;-63
2021/09/25 02:14:35;;;;;;;9.98;6.25;;;16.70;96.70;;;;;;5051647;28;20017;-63
2021/09/25 02:17:01;;;;;;;9.30;6.72;;;16.70;96.80;;;;;;5048845;28;20025;-63
2021/09/25 02:19:26;;;;;;;11.05;7.15;;;16.60;96.90;;;;;;5054244;28;20027;-63
2021/09/25 02:21:52;;;;;;;9.60;5.45;;;16.60;97.00;;;;;;5048675;28;20024;-63
2021/09/25 02:24:17;;;;;;;9.80;6.57;;;16.50;97.00;;;;;;5051594;28;20025;-63
2021/09/25 02:26:43;;;;;;;9.65;5.97;;;16.50;97.10;;;;;;5053959;28;20433;-63
2021/09/25 02:29:09;;;;;;;8.85;6.35;;;16.60;97.10;;;;;;5049108;28;20032;-62
2021/09/25 02:31:34;;;;;;;8.88;6.03;;;16.60;97.00;;;;;;5054396;28;20029;-63
2021/09/25 02:34:00;;;;;;;9.18;5.72;;;16.60;97.00;;;;;;5039260;28;20115;-63
2021/09/25 02:36:26;;;;;;;8.38;5.50;;;16.60;97.00;;;;;;5048608;28;20050;-63
2021/09/25 02:38:51;;;;;;;10.95;7.32;;;16.50;97.00;;;;;;5051169;28;20029;-63
2021/09/25 02:41:16;;;;;;;8.20;6.18;;;16.50;97.00;;;;;;5033531;28;20388;-63
2021/09/25 02:43:42;;;;;;;8.82;5.53;;;16.50;97.00;;;;;;5051507;28;20033;-63
2021/09/25 02:46:08;;;;;;;9.38;6.25;;;16.60;97.00;;;;;;5052428;28;20029;-63
2021/09/25 02:48:33;;;;;;;10.10;6.88;;;16.50;97.00;;;;;;5055113;28;20428;-63
2021/09/25 02:50:59;;;;;;;8.77;5.97;;;16.50;97.00;;;;;;5049567;28;20477;-63
2021/09/25 02:53:24;;;;;;;7.75;5.22;;;16.50;97.00;;;;;;5048317;28;20060;-63
2021/09/25 02:55:50;;;;;;;9.98;6.43;;;16.50;97.00;;;;;;5056540;28;20047;-63
2021/09/25 02:58:15;;;;;;;8.50;5.95;;;16.50;97.00;;;;;;5051247;28;20021;-63
2021/09/25 03:00:41;;;;;;;12.00;7.38;;;16.50;97.00;;;;;;5051992;28;20025;-63
2021/09/25 03:03:07;;;;;;;8.77;6.35;;;16.50;97.00;;;;;;5047304;28;20059;-63
2021/09/25 03:05:32;;;;;;;8.27;5.78;;;16.50;97.00;;;;;;5050913;28;20029;-63
2021/09/25 03:07:58;;;;;;;10.43;6.50;;;16.50;97.00;;;;;;5051129;28;20023;-63
2021/09/25 03:10:23;;;;;;;8.20;6.05;;;16.50;97.10;;;;;;5038173;28;20025;-63
2021/09/25 03:12:49;;;;;;;9.07;6.40;;;16.50;97.10;;;;;;5051058;28;20024;-63
2021/09/25 03:15:14;;;;;;;9.02;5.90;;;16.40;97.10;;;;;;5051003;28;20032;-63
2021/09/25 03:17:40;;;;;;;9.27;6.20;;;16.40;97.10;;;;;;5050906;28;20538;-63
2021/09/25 03:20:10;;;;;;;9.07;5.85;;;16.40;97.20;;;;;;5050692;28;20025;-63
2021/09/25 03:22:35;;;;;;;9.60;6.90;;;16.40;97.10;;;;;;5047657;28;20030;-62
2021/09/25 03:25:06;;;;;;;10.25;6.80;;;16.40;97.20;;;;;;5059480;28;20024;-63
2021/09/25 03:27:32;;;;;;;10.10;5.82;;;16.40;97.20;;;;;;5050590;28;20143;-63
2021/09/25 03:29:58;;;;;;;7.80;4.95;;;16.40;97.20;;;;;;5045348;28;20502;-63
2021/09/25 03:32:23;;;;;;;9.85;5.93;;;16.40;97.20;;;;;;5053282;28;20539;-63
2021/09/25 03:34:48;;;;;;;9.27;5.57;;;16.40;97.20;;;;;;5049383;28;20021;-63
2021/09/25 03:37:14;;;;;;;6.32;4.88;;;16.40;97.10;;;;;;5049860;28;20452;-63
2021/09/25 03:39:40;;;;;;;7.47;5.10;;;16.40;97.40;;;;;;5056107;28;20144;-63
2021/09/25 03:42:05;;;;;;;7.97;5.50;;;16.40;97.10;;;;;;5049552;28;20040;-63
2021/09/25 03:44:31;;;;;;;7.22;5.30;;;16.40;97.10;;;;;;5032697;28;20380;-63
2021/09/25 03:46:57;;;;;;;9.35;6.22;;;16.40;97.10;;;;;;5054001;28;20021;-63
2021/09/25 03:49:23;;;;;;;9.55;5.88;;;16.30;97.20;;;;;;5053360;28;20021;-63
2021/09/25 03:51:49;;;;;;;8.63;6.05;;;16.30;97.20;;;;;;5047739;28;20027;-63
2021/09/25 03:54:15;;;;;;;10.43;6.40;;;16.30;97.30;;;;;;5050366;28;20029;-63
2021/09/25 03:56:40;;;;;;;10.38;6.38;;;16.30;97.50;;;;;;5050567;28;20436;-63
2021/09/25 03:59:06;;;;;;;11.00;7.43;;;16.20;97.60;;;;;;5050586;28;20028;-63
2021/09/25 04:01:31;;;;;;;10.27;6.95;;;16.20;97.80;;;;;;5034312;28;20447;-63
2021/09/25 04:03:57;;;;;;;10.80;6.82;;;16.10;97.90;;;;;;5054065;28;20556;-63
2021/09/25 04:06:26;;;;;;;9.13;6.00;;;16.10;98.10;;;;;;5052261;28;20039;-63
2021/09/25 04:08:52;;;;;;;9.23;6.27;;;16.10;98.00;;;;;;5048356;28;20017;-63
2021/09/25 04:11:18;;;;;;;9.80;6.45;;;16.10;98.00;;;;;;5051236;28;20099;-63
2021/09/25 04:13:44;;;;;;;9.52;6.07;;;16.10;98.00;;;;;;5056195;28;20112;-63
2021/09/25 04:16:09;;;;;;;9.75;5.93;;;16.10;98.00;;;;;;5056695;28;20052;-63
2021/09/25 04:18:35;;;;;;;8.48;6.47;;;16.10;98.00;;;;;;5053921;28;20032;-63
2021/09/25 04:21:00;;;;;;;10.60;6.28;;;16.10;98.10;;;;;;5053911;28;20070;-63
2021/09/25 04:23:26;;;;;;;8.65;5.68;;;16.10;98.10;;;;;;5056523;28;20078;-63
2021/09/25 04:25:51;;;;;;;7.72;5.45;;;16.10;98.10;;;;;;5053658;28;20029;-63
2021/09/25 04:28:17;;;;;;;7.90;5.13;;;16.10;98.10;;;;;;5052293;28;20103;-63
2021/09/25 04:30:42;;;;;;;8.00;5.53;;;16.10;98.10;;;;;;5040031;28;20508;-63
2021/09/25 04:33:10;;;;;;;6.90;4.60;;;16.10;98.10;;;;;;5053439;28;20067;-63
2021/09/25 04:35:37;;;;;;;8.40;5.22;;;16.20;98.10;;;;;;5047874;28;20028;-63
2021/09/25 04:38:03;;;;;;;7.85;5.72;;;16.20;98.10;;;;;;5055003;28;20472;-63
2021/09/25 04:40:31;;;;;;;7.38;5.20;;;16.10;98.10;;;;;;5055679;28;21167;-63
2021/09/25 04:42:58;;;;;;;8.43;5.83;;;16.10;98.10;;;;;;5049342;28;20028;-63
2021/09/25 04:45:24;;;;;;;10.13;5.65;;;16.10;98.20;;;;;;5052888;28;20258;-63
2021/09/25 04:47:50;;;;;;;9.10;5.70;;;16.10;98.20;;;;;;5050388;28;20013;-63
2021/09/25 04:50:16;;;;;;;10.13;5.68;;;16.10;98.20;;;;;;5035192;28;20024;-63
2021/09/25 04:52:42;;;;;;;8.98;6.07;;;16.10;98.30;;;;;;5052566;28;20094;-63
2021/09/25 04:55:08;;;;;;;8.38;5.30;;;16.00;98.30;;;;;;5050204;28;20041;-63
2021/09/25 04:57:34;;;;;;;7.82;5.57;;;16.10;98.40;;;;;;5054239;28;20485;-63
2021/09/25 05:00:00;;;;;;;8.50;4.55;;;16.00;98.40;;;;;;5054137;28;20021;-63
2021/09/25 05:02:25;;;;;;;7.70;5.50;;;16.10;98.30;;;;;;5051605;28;20028;-63
2021/09/25 05:04:51;;;;;;;7.95;6.03;;;16.10;98.20;;;;;;5034035;28;20481;-63
2021/09/25 05:07:16;;;;;;;7.65;5.20;;;16.10;98.30;;;;;;5051080;28;20022;-63
2021/09/25 05:09:42;;;;;;;7.63;5.35;;;16.10;98.30;;;;;;5053956;28;20059;-63
2021/09/25 05:12:08;;;;;;;6.05;4.72;;;16.10;98.30;;;;;;5054926;28;20115;-63
2021/09/25 05:14:34;;;;;;;9.05;5.70;;;16.00;98.30;;;;;;5054196;28;20071;-63
2021/09/25 05:17:00;;;;;;;9.20;6.47;;;16.00;98.40;;;;;;5048188;28;20490;-63
2021/09/25 05:19:26;;;;;;;8.75;6.07;;;16.00;98.50;;;;;;5039898;28;20021;-63
2021/09/25 05:21:51;;;;;;;8.77;6.28;;;16.00;98.60;;;;;;5055113;28;20377;-63
2021/09/25 05:24:19;;;;;;;7.95;6.10;;;16.00;98.70;;;;;;5034684;28;20106;-63
2021/09/25 05:26:45;;;;;;;9.45;6.40;;;16.00;98.80;;;;;;5056751;28;20029;-63
2021/09/25 05:29:11;;;;;;;7.10;5.03;;;16.00;98.80;;;;;;5036160;28;20037;-63
2021/09/25 05:31:37;;;;;;;8.20;6.15;;;16.00;98.80;;;;;;5058569;28;20056;-63
2021/09/25 05:34:03;;;;;;;8.98;5.90;;;16.00;98.80;;;;;;5065493;28;20062;-63
2021/09/25 05:36:29;;;;;;;6.25;4.68;;;16.00;98.80;;;;;;5045589;28;20017;-63
2021/09/25 05:38:54;;;;;;;7.20;5.38;;;16.00;98.80;;;;;;5034074;28;20032;-63
2021/09/25 05:41:20;;;;;;;11.32;6.53;;;16.00;98.80;;;;;;5035285;28;20025;-62
2021/09/25 05:43:45;;;;;;;9.35;6.32;;;16.00;98.80;;;;;;5066599;28;20426;-63
2021/09/25 05:46:11;;;;;;;7.53;5.43;;;16.00;98.90;;;;;;5053732;28;20075;-63
2021/09/25 05:48:37;;;;;;;7.07;5.47;;;16.00;98.90;;;;;;5053609;28;20029;-63
2021/09/25 05:51:03;;;;;;;6.68;4.43;;;16.00;98.90;;;;;;5059874;28;20079;-63
2021/09/25 05:53:29;;;;;;;6.70;4.95;;;16.00;98.80;;;;;;5059614;28;20045;-63
2021/09/25 05:55:54;;;;;;;6.57;4.90;;;16.00;98.80;;;;;;5046710;28;20077;-63
2021/09/25 05:58:20;;;;;;;8.25;5.15;;;16.10;98.80;;;;;;5025383;28;20104;-62
2021/09/25 06:00:45;;;;;;;8.25;4.25;;;16.10;98.70;;;;;;5031070;28;20026;-63
2021/09/25 06:03:11;;;;;;;9.65;6.45;;;16.10;98.70;;;;;;5014463;28;20045;-63
2021/09/25 06:05:36;;;;;;;7.20;5.05;;;16.10;98.70;;;;;;5032767;28;20064;-63
2021/09/25 06:08:03;;;;;;;6.90;5.40;;;16.10;98.70;;;;;;5030647;28;20030;-62
2021/09/25 06:10:30;;;;;;;8.05;5.65;;;16.10;98.80;;;;;;5028092;28;20025;-63
2021/09/25 06:12:56;;;;;;;7.00;5.88;;;16.10;98.80;;;;;;5046409;28;20462;-63
2021/09/25 06:15:21;;;;;;;7.00;5.50;;;16.10;98.80;;;;;;5032899;28;20036;-63
2021/09/25 06:17:47;;;;;;;9.02;6.10;;;16.10;98.90;;;;;;5036848;28;20048;-63
2021/09/25 06:20:13;;;;;;;8.38;5.53;;;16.10;98.90;;;;;;5042874;28;20354;-63
2021/09/25 06:22:39;;;;;;;7.72;5.50;;;16.20;98.90;;;;;;5022458;28;20413;-63
2021/09/25 06:25:05;;;;;;;8.75;5.90;;;16.20;98.90;;;;;;5024013;28;20022;-63
2021/09/25 06:27:31;;;;;;;10.40;6.07;;;16.20;98.90;;;;;;5021270;28;20445;-62
2021/09/25 06:29:56;;;;;;;8.02;5.55;;;16.20;98.90;;;;;;5022460;28;20354;-63
2021/09/25 06:32:22;;;;;;;8.10;5.60;;;16.20;98.90;;;;;;5038992;28;20028;-63
2021/09/25 06:34:47;;;;;;;10.18;6.47;;;16.20;98.80;;;;;;5037176;28;20454;-63
2021/09/25 06:37:13;;;;;;;8.88;6.05;;;16.30;98.90;;;;;;5027090;28;20022;-63
2021/09/25 06:39:38;;;;;;;10.77;7.13;;;16.30;98.90;;;;;;5035703;28;20075;-63
2021/09/25 06:42:04;;;;;;;11.07;7.55;;;16.30;99.00;;;;;;5031753;28;20018;-63
2021/09/25 06:44:30;;;;;;;12.73;7.78;;;16.20;99.10;;;;;;5032753;28;20026;-63
2021/09/25 06:46:55;;;;;;;10.63;7.50;;;16.20;99.30;;;;;;5020449;28;20466;-63
2021/09/25 06:49:23;;;;;;;9.65;7.03;;;16.20;99.40;;;;;;5012876;28;20026;-63
2021/09/25 06:51:50;;;;;;;11.65;7.57;;;16.20;99.60;;;;;;5024492;28;20018;-63
2021/09/25 06:54:15;;;;;;;17.33;7.72;;;16.20;99.60;;;;;;5030515;28;20025;-63
2021/09/25 06:56:41;;;;;;;13.48;7.85;;;16.30;99.60;;;;;;5045131;28;20107;-63
2021/09/25 06:59:06;;;;;;;12.45;8.30;;;16.30;99.50;;;;;;5019572;28;20093;-63
2021/09/25 07:01:32;;;;;;;10.70;7.60;;;16.30;99.50;;;;;;5045357;28;20493;-62
2021/09/25 07:03:58;;;;;;;13.45;8.80;;;16.30;99.50;;;;;;5021558;28;20068;-63
2021/09/25 07:06:23;;;;;;;14.27;9.32;;;16.30;99.60;;;;;;5029460;28;20477;-63
2021/09/25 07:08:49;;;;;;;10.57;7.22;;;16.30;99.50;;;;;;5030938;28;20029;-63
2021/09/25 07:11:14;;;;;;;13.10;8.00;;;16.30;99.60;;;;;;5031129;28;20018;-63
2021/09/25 07:13:42;;;;;;;10.43;6.82;;;16.30;99.50;;;;;;5029978;28;20115;-63
2021/09/25 07:16:08;;;;;;;9.10;6.63;;;16.40;99.50;;;;;;5027748;28;20148;-63
2021/09/25 07:18:34;;;;;;;8.43;5.90;;;16.50;99.40;;;;;;5028571;28;20025;-63
2021/09/25 07:20:59;;;;;;;9.63;7.75;;;16.50;99.30;;;;;;5012445;28;20401;-63
2021/09/25 07:23:25;;;;;;;15.80;9.13;;;16.60;99.20;;;;;;5023305;28;20029;-62
2021/09/25 07:25:51;;;;;;;11.60;8.70;;;16.50;99.10;;;;;;5030017;28;20029;-63
2021/09/25 07:28:16;;;;;;;12.73;8.82;;;16.50;99.20;;;;;;5031331;28;20029;-63
2021/09/25 07:30:43;;;;;;;14.07;8.27;;;16.50;99.20;;;;;;5027163;28;20038;-63
2021/09/25 07:33:09;;;;;;;12.30;8.50;;;16.50;99.20;;;;;;5024574;28;20028;-63
2021/09/25 07:35:36;;;;;;;13.45;9.52;;;16.50;99.30;;;;;;5023516;28;20385;-63
2021/09/25 07:38:06;;;;;;;13.73;9.77;;;16.50;99.30;;;;;;5032203;28;20073;-63
2021/09/25 07:40:33;;;;;;;12.90;9.25;;;16.50;99.30;;;;;;5031095;28;20113;-62
2021/09/25 07:42:58;;;;;;;12.48;9.45;;;16.50;99.40;;;;;;5032047;28;20053;-63
2021/09/25 07:45:24;;;;;;;13.82;9.55;;;16.50;99.50;;;;;;5002948;28;20060;-63
2021/09/25 07:47:50;;;;;;;13.65;8.95;;;16.50;99.40;;;;;;5029673;28;20025;-63
2021/09/25 07:50:15;;;;;;;12.23;9.07;;;16.50;99.40;;;;;;5028867;28;20030;-63
2021/09/25 07:52:42;;;;;;;11.10;9.05;;;16.60;99.40;;;;;;5016234;28;20052;-63
2021/09/25 07:55:10;;;;;;;12.68;8.85;;;16.60;99.50;;;;;;5025914;28;20073;-64
2021/09/25 07:57:37;;;;;;;12.13;8.60;;;16.60;99.50;;;;;;5033630;28;20377;-63
2021/09/25 08:00:04;;;;;;;14.05;9.30;;;16.70;99.60;;;;;;5031361;28;20025;-63
2021/09/25 08:02:29;;;;;;;13.30;9.70;;;16.60;99.40;;;;;;5013593;28;20029;-63
2021/09/25 08:04:55;;;;;;;14.88;9.90;;;16.60;99.50;;;;;;5033906;28;20029;-63
2021/09/25 08:07:20;;;;;;;13.73;9.02;;;16.60;99.50;;;;;;5031257;28;20393;-63
2021/09/25 08:09:46;;;;;;;11.90;9.82;;;16.70;99.50;;;;;;5024333;28;20032;-63
2021/09/25 08:12:11;;;;;;;13.32;9.05;;;16.70;99.50;;;;;;5030610;28;20104;-63
2021/09/25 08:14:37;;;;;;;13.90;9.60;;;16.80;99.40;;;;;;5031891;28;20024;-63
2021/09/25 08:17:03;;;;;;;16.20;10.43;;;16.80;99.30;;;;;;5031200;28;20489;-63
2021/09/25 08:19:28;;;;;;;12.35;9.07;;;16.80;99.20;;;;;;5030973;28;20024;-63
2021/09/25 08:21:54;;;;;;;15.00;10.10;;;16.80;99.20;;;;;;5030882;28;20159;-63
2021/09/25 08:24:19;;;;;;;11.52;9.45;;;16.90;99.10;;;;;;5015646;28;20117;-63
2021/09/25 08:26:45;;;;;;;15.52;11.02;;;16.90;99.10;;;;;;5030451;28;20030;-63
2021/09/25 08:29:10;;;;;;;14.63;10.93;;;16.90;99.10;;;;;;5030535;28;20031;-63
2021/09/25 08:31:36;;;;;;;13.15;10.55;;;16.90;99.00;;;;;;5027461;28;20308;-63
2021/09/25 08:34:02;;;;;;;19.15;11.85;;;16.90;99.00;;;;;;5020082;28;20025;-63
2021/09/25 08:36:27;;;;;;;15.45;11.85;;;17.00;99.10;;;;;;5026238;28;20100;-63
2021/09/25 08:38:53;;;;;;;15.55;10.10;;;17.00;99.10;;;;;;5038748;28;20041;-63
2021/09/25 08:41:19;;;;;;;16.05;10.65;;;16.90;99.10;;;;;;5033140;28;20029;-63
2021/09/25 08:43:45;;;;;;;15.27;10.43;;;17.10;99.10;;;;;;5043296;28;20494;-63
2021/09/25 08:46:11;;;;;;;15.25;10.90;;;17.10;99.00;;;;;;5033568;28;20075;-63
2021/09/25 08:48:38;;;;;;;17.58;12.25;;;17.10;98.80;;;;;;5023334;28;20053;-63
2021/09/25 08:51:04;;;;;;;16.88;11.48;;;17.10;98.70;;;;;;5034621;28;20045;-63
2021/09/25 08:53:29;;;;;;;17.67;12.00;;;17.10;98.70;;;;;;5032621;28;20067;-63
2021/09/25 08:55:55;;;;;;;18.75;12.77;;;17.10;98.80;;;;;;5032703;28;20116;-63
2021/09/25 08:58:20;;;;;;;17.52;12.57;;;17.20;98.70;;;;;;5034654;28;20069;-63
2021/09/25 09:00:48;;;;;;;14.40;11.57;;;17.20;98.70;;;;;;5029323;28;20053;-63
2021/09/25 09:03:35;;;;;;;15.80;10.93;;;17.20;98.70;;;;;;5028919;28;20036;-63
2021/09/25 09:06:22;;;;;;;14.20;10.98;;;17.30;98.50;;;;;;5027751;28;20024;-63
2021/09/25 09:08:51;;;;;;;20.33;12.88;;;17.40;98.50;;;;;;5034045;28;20052;-63
2021/09/25 09:11:18;;;;;;;19.90;12.90;;;17.30;98.40;;;;;;5027824;28;20018;-63
2021/09/25 09:13:46;;;;;;;17.40;12.77;;;17.30;98.40;;;;;;5026379;28;20396;-63
2021/09/25 09:16:13;;;;;;;20.80;13.18;;;17.30;98.40;;;;;;5034413;28;20095;-63
2021/09/25 09:18:41;;;;;;;15.43;10.80;;;17.30;98.40;;;;;;5030394;28;20032;-63
2021/09/25 09:21:31;;;;;;;16.38;12.00;;;17.40;98.40;;;;;;5015359;28;20121;-63
2021/09/25 09:23:59;;;;;;;13.32;10.82;;;17.50;98.20;;;;;;5033802;28;20023;-63
2021/09/25 09:26:28;;;;;;;17.88;11.07;;;17.50;98.10;;;;;;5024672;28;20030;-63
2021/09/25 09:28:55;;;;;;;13.52;9.90;;;17.50;98.00;;;;;;5029842;28;20512;-63
2021/09/25 09:31:22;;;;;;;15.07;11.95;;;17.60;98.00;;;;;;5016115;28;20029;-63
2021/09/25 09:33:50;;;;;;;18.48;12.80;;;17.60;97.90;;;;;;5019760;28;20085;-63
2021/09/25 09:36:40;;;;;;;21.45;14.05;;;17.60;97.80;;;;;;5033753;28;20013;-64
2021/09/25 09:39:08;;;;;;;19.25;12.73;;;17.60;97.70;;;;;;5014172;28;20037;-63
2021/09/25 09:41:46;;;;;;;16.08;10.80;;;17.60;97.80;;;;;;5011256;28;20072;-63
2021/09/25 09:44:17;;;;;;;11.32;8.52;;;17.70;97.80;;;;;;5027578;28;20041;-63
2021/09/25 09:46:47;;;;;;;18.50;13.02;;;17.80;97.80;;;;;;5029341;28;20025;-63
2021/09/25 09:49:20;;;;;;;17.42;11.75;;;17.80;97.40;;;;;;5029255;28;20022;-63
2021/09/25 09:51:49;;;;;;;17.63;13.35;;;17.90;97.30;;;;;;5025608;28;20033;-63
2021/09/25 09:54:21;;;;;;;20.17;13.40;;;17.90;97.20;;;;;;5028056;28;20481;-63
2021/09/25 09:56:48;;;;;;;20.40;13.32;;;17.90;97.20;;;;;;5032267;28;20064;-63
2021/09/25 09:59:14;;;;;;;18.55;14.10;;;17.80;97.30;;;;;;5032904;28;20013;-64
2021/09/25 10:01:41;;;;;;;21.95;14.85;;;17.90;97.40;;;;;;5045707;28;20518;-63
2021/09/25 10:04:07;;;;;;;22.33;14.93;;;17.90;97.20;;;;;;5030413;28;20144;-63
2021/09/25 10:06:36;;;;;;;18.70;14.00;;;17.90;97.40;;;;;;5045523;28;20029;-63
2021/09/25 10:09:10;;;;;;;19.50;14.00;;;17.90;97.30;;;;;;5050269;28;20083;-63
2021/09/25 10:11:38;;;;;;;19.88;14.20;;;17.90;97.40;;;;;;5033405;28;20385;-63
2021/09/25 10:14:05;;;;;;;19.83;14.45;;;17.90;97.20;;;;;;5034342;28;20140;-63
2021/09/25 10:16:31;;;;;;;21.38;14.65;;;18.00;97.30;;;;;;5045956;28;20036;-63
2021/09/25 10:18:57;;;;;;;19.90;14.15;;;18.00;97.20;;;;;;5033561;28;20024;-63
2021/09/25 10:21:24;;;;;;;21.65;14.52;;;18.00;97.10;;;;;;5033133;28;20083;-64
2021/09/25 10:23:58;;;;;;;21.40;13.80;;;18.00;97.10;;;;;;5052466;28;20060;-63
2021/09/25 10:26:27;;;;;;;16.05;11.73;;;18.10;97.00;;;;;;5035033;28;20086;-63
2021/09/25 10:28:59;;;;;;;19.55;12.43;;;18.20;97.00;;;;;;5020799;28;20061;-63
2021/09/25 10:31:25;;;;;;;22.40;14.82;;;18.30;96.90;;;;;;5052639;28;20044;-63
2021/09/25 10:34:11;;;;;;;19.45;13.20;;;18.40;96.70;;;;;;5052566;28;20020;-63
2021/09/25 10:36:55;;;;;;;18.92;12.70;;;18.40;96.40;;;;;;5032783;28;20445;-63
2021/09/25 10:39:29;;;;;;;17.42;13.40;;;18.50;96.40;;;;;;5049642;28;20036;-63
2021/09/25 10:42:11;;;;;;;18.35;12.45;;;18.50;96.30;;;;;;5047150;28;20025;-63
2021/09/25 10:45:03;;;;;;;18.38;12.10;;;18.60;96.20;;;;;;5040190;28;20044;-63
2021/09/25 10:47:33;;;;;;;17.52;12.45;;;18.70;96.10;;;;;;5049174;28;20508;-63
2021/09/25 10:50:00;;;;;;;16.50;12.45;;;18.70;96.10;;;;;;5052586;28;20037;-63
2021/09/25 10:52:51;;;;;;;17.90;14.15;;;18.80;96.10;;;;;;5051850;28;20036;-63
2021/09/25 10:55:19;;;;;;;18.13;13.88;;;18.90;95.80;;;;;;5045221;28;20041;-63
2021/09/25 10:58:13;;;;;;;16.80;13.13;;;18.90;95.80;;;;;;5031642;28;20032;-64
2021/09/25 11:01:08;;;;;;;21.30;14.95;;;19.00;95.60;;;;;;5022879;28;20033;-63
2021/09/25 11:03:43;;;;;;;17.58;13.07;;;19.00;95.50;;;;;;5029521;28;20037;-63
2021/09/25 11:06:25;;;;;;;20.08;15.43;;;19.00;95.60;;;;;;5027424;28;20543;-63
2021/09/25 11:09:02;;;;;;;18.63;14.20;;;19.00;95.50;;;;;;4995073;28;20125;-64
2021/09/25 11:11:38;;;;;;;19.05;14.63;;;19.00;95.30;;;;;;5036663;28;20433;-64
2021/09/25 11:14:08;;;;;;;21.60;13.93;;;19.10;95.30;;;;;;5006908;28;20026;-64
2021/09/25 11:17:10;;;;;;;24.27;15.88;;;19.10;95.30;;;;;;5039070;28;20093;-64
2021/09/25 11:19:47;;;;;;;20.77;15.48;;;19.20;95.20;;;;;;5025682;28;20018;-64
2021/09/25 11:22:18;;;;;;;20.65;14.23;;;19.10;95.20;;;;;;5035108;28;20092;-63
2021/09/25 11:24:57;;;;;;;20.88;15.88;;;19.10;95.30;;;;;;5029860;28;20021;-64
2021/09/25 11:27:29;;;;;;;17.13;13.75;;;19.20;95.30;;;;;;5037486;28;20021;-63
2021/09/25 11:30:11;;;;;;;21.55;14.40;;;19.20;95.20;;;;;;5035120;28;20489;-64
2021/09/25 11:32:48;;;;;;;22.88;15.10;;;19.20;94.90;;;;;;5034285;28;20075;-63
2021/09/25 11:35:20;;;;;;;19.45;13.77;;;19.20;95.00;;;;;;5033939;28;20429;-63
2021/09/25 11:37:56;;;;;;;17.02;14.50;;;19.40;95.00;;;;;;5037876;28;20449;-64
2021/09/25 11:40:26;;;;;;;15.88;12.25;;;19.40;94.70;;;;;;5034959;28;20040;-64
2021/09/25 11:42:57;;;;;;;15.52;10.57;;;19.50;94.70;;;;;;5037557;28;20060;-64
2021/09/25 11:45:23;;;;;;;19.67;14.35;;;19.60;94.60;;;;;;5004273;28;20021;-63
2021/09/25 11:47:49;;;;;;;19.52;13.63;;;19.70;94.30;;;;;;5037608;28;20116;-63
2021/09/25 11:50:19;;;;;;;18.48;13.90;;;19.70;94.10;;;;;;5036215;28;20022;-63
2021/09/25 11:52:48;;;;;;;16.67;12.18;;;19.70;94.10;;;;;;5034642;28;20104;-64
2021/09/25 11:55:15;;;;;;;19.90;13.80;;;19.70;93.90;;;;;;5044797;28;20123;-64
2021/09/25 11:57:47;;;;;;;20.83;11.75;;;19.80;94.00;;;;;;5057266;28;20029;-63
2021/09/25 12:00:37;;;;;;;14.25;11.10;;;19.90;93.90;;;;;;5057680;28;20019;-64
2021/09/25 12:03:04;;;;;;;17.52;12.88;;;20.00;93.60;;;;;;5053440;28;20071;-63
2021/09/25 12:05:37;;;;;;;16.17;11.70;;;19.90;93.20;;;;;;5052309;28;20122;-64
2021/09/25 12:08:09;;;;;;;13.23;10.98;;;19.90;93.10;;;;;;5054621;28;20025;-63
2021/09/25 12:10:46;;;;;;;14.05;10.52;;;19.90;93.20;;;;;;5052576;28;20029;-64
2021/09/25 12:13:51;;;;;;;15.73;11.57;;;20.00;93.00;;;;;;5053803;28;20029;-64
2021/09/25 12:16:18;;;;;;;16.23;11.73;;;20.00;92.80;;;;;;5012029;28;20488;-64
2021/09/25 12:18:47;;;;;;;16.45;12.48;;;20.00;93.10;;;;;;5057348;28;20021;-64
2021/09/25 12:21:31;;;;;;;15.13;12.05;;;19.90;93.00;;;;;;5054557;28;20086;-64
2021/09/25 12:24:06;;;;;;;17.77;13.52;;;19.90;92.90;;;;;;5051414;28;20036;-64
2021/09/25 12:26:35;;;;;;;15.07;11.70;;;19.80;93.20;;;;;;5054201;28;20025;-64
2021/09/25 12:29:03;;;;;;;14.10;12.05;;;19.80;93.10;;;;;;5053820;28;20100;-64
2021/09/25 12:31:31;;;;;;;15.57;11.25;;;19.80;93.00;;;;;;5053916;28;20029;-64
2021/09/25 12:34:11;;;;;;;14.07;11.02;;;19.90;93.00;;;;;;5048328;28;20024;-64
2021/09/25 12:36:45;;;;;;;15.75;12.00;;;19.90;92.50;;;;;;5033557;28;20066;-64
2021/09/25 12:39:25;;;;;;;16.27;12.02;;;19.90;92.50;;;;;;5052224;28;20017;-64
2021/09/25 12:42:03;;;;;;;14.73;10.63;;;19.80;92.40;;;;;;5051088;28;20090;-64